Aeroporto :
LOGIN :

Iscrizione | Disclaimer

   EN    FR    IT 

 










Sommario :    VFR   VFR Marginale   IFR   IFR Intensivo   IFR Molto Intensivo
Visibilità : 
Base nubi : 
>= 8 km
>= 3000ft
5 / 8 km
1000 / 3000 ft
1500m / 5 km
500 / 1000 ft
800 / 1500m
200 / 500 ft
< 800m
< 200 ft
Simboli :   Temporali  Nebbia  Neve Forte  Precipitazioni Forti  Vento > 20 kt
SIGMETs :   Varie  Temporali  Ghiacco  Turbolenza  Onda orograficha  Ceneri Vulcaniche






- Altitudine del aeroporto : 15 ft
- Codice IATA : FCO


LIRF - Roma Leonardo da Vinci Fiumicino

ULTIMO METAR :
  • 211620Z 27007KT CAVOK 13/08 Q1024 NOSIG

METARs OBSOLETI :
  • 211550Z 27007KT CAVOK 14/08 Q1023 NOSIG
  • 211520Z 26008KT CAVOK 14/07 Q1023 NOSIG
  • 211450Z 26008KT CAVOK 14/07 Q1023 NOSIG
  • 211420Z 26008KT CAVOK 15/07 Q1023 NOSIG
  • 211350Z 28007KT 250V310 9999 FEW035 15/06 Q1024 NOSIG

TAF TAF LIRF
Valido dal 21 a 12 ore il 22 a 18 ore UTC


211100Z 2112/2218 27010KT CAVOK
BECMG 2116/2118 VRB05KT
BECMG 2210/2212 28010KT



MetMap, La meteo Aeronautica in un colpo d'occhio ! - Copyright ORBIFLY Dicembre 2007 - Disclaimer

ORBIFLY MET'MAP TEAM :

Programmazione e sviluppo : Alexandra Zaïnal
Concezione : Baudouin d'Aumeries
Aiuto per la programmazione : Marc-Olivier Méhu
Supporto tecnico e logistico : Manuel Goepfert
Aiuto per la traduzione : Arnaldo La Scala

Contatto : metmap@orbifly.com




FONTI E CREDITI :

   NOAA